This is the latest recevied weather packets stored in our database for station/object W1CAT. If no packets are shown the sender has not sent any weather packets the latest 10 day(s).
| Time | Temp. | Humidity | Pressure | Rain* | Wind** | Luminosity | Snow |
|---|---|---|---|---|---|---|---|
| 1777404791 | 10.56° C | 29% | - | 0 mm | - | - | - |
| 1777404489 | 11.67° C | 28% | - | 0 mm | - | - | - |
| 1777404184 | 11.67° C | 27% | - | 0 mm | - | - | - |
| 1777403881 | 12.78° C | 27% | - | 0 mm | - | - | - |
| 1777403575 | 12.78° C | 28% | - | 0 mm | - | - | - |
| 1777403275 | 11.67° C | 28% | - | 0 mm | - | - | - |
| 1777402975 | 10.56° C | 30% | - | 0 mm | - | - | - |
| 1777402671 | 12.22° C | 29% | - | 0 mm | - | - | - |
| 1777402370 | 12.22° C | 31% | - | 0 mm | - | - | - |
| 1777402069 | 12.22° C | 31% | - | 0 mm | - | - | - |
| 1777401764 | 11.11° C | 32% | - | 0 mm | - | - | - |
| 1777401459 | 12.22° C | 29% | - | 0 mm | - | - | - |
| 1777401155 | 10.56° C | 29% | - | 0 mm | - | - | - |
| 1777400851 | 10.56° C | 29% | - | 0 mm | - | - | - |
| 1777400547 | 11.67° C | 28% | - | 0 mm | - | - | - |
| 1777400245 | 11.11° C | 31% | - | 0 mm | - | - | - |
| 1777399940 | 11.67° C | 30% | - | 0 mm | - | - | - |
| 1777399638 | 12.22° C | 29% | - | 0 mm | - | - | - |
| 1777399335 | 11.67° C | 29% | - | 0 mm | - | - | - |
| 1777399033 | 11.67° C | 29% | - | 0 mm | - | - | - |
| 1777398729 | 11.67° C | 29% | - | 0 mm | - | - | - |
| 1777398426 | 11.67° C | 29% | - | 0 mm | - | - | - |
| 1777398123 | 11.11° C | 30% | - | 0 mm | - | - | - |
| 1777397820 | 11.11° C | 31% | - | 0 mm | - | - | - |
| 1777397515 | 11.67° C | 29% | - | 0 mm | - | - | - |
* Rain latest hour (hover to see other rain measurements)
** Current wind speed in m/s (hover to see current wind gust speed)